Time;durP1;ratioP1;P1;durP2;ratioP2;P2;SDS_P1;SDS_P2;PMS_P1;PMS_P2;Temp;Humidity;BMP_temperature;BMP_pressure;BME280_temperature;BME280_humidity;BME280_pressure;Samples;Min_cycle;Max_cycle;Signal;HPM_P1;HPM_P2
2024/01/07 00:02:14;;;;;;;4.80;4.13;;;7.90;99.90;;;;;;5022971;28;20213;-45
2024/01/07 00:04:42;;;;;;;5.85;4.03;;;7.80;99.90;;;;;;5020781;28;20209;-47
2024/01/07 00:07:12;;;;;;;5.10;3.95;;;7.80;99.90;;;;;;5022283;28;20277;-45
2024/01/07 00:09:41;;;;;;;5.53;3.93;;;7.80;99.90;;;;;;5023231;28;20244;-46
2024/01/07 00:12:09;;;;;;;3.53;3.00;;;7.80;99.90;;;;;;5021915;28;20973;-47
2024/01/07 00:14:37;;;;;;;4.60;3.67;;;7.80;99.90;;;;;;5011726;28;20205;-47
2024/01/07 00:17:05;;;;;;;5.50;4.27;;;7.80;99.90;;;;;;5022208;28;20217;-46
2024/01/07 00:19:35;;;;;;;5.18;4.10;;;7.80;99.90;;;;;;5020937;28;20503;-45
2024/01/07 00:22:03;;;;;;;5.40;3.80;;;7.80;99.90;;;;;;5025565;28;20259;-47
2024/01/07 00:24:33;;;;;;;4.10;3.58;;;7.80;99.90;;;;;;5023299;28;20207;-47
2024/01/07 00:27:01;;;;;;;4.90;3.65;;;7.80;99.90;;;;;;5021908;28;20656;-48
2024/01/07 00:29:30;;;;;;;5.35;3.70;;;7.80;99.90;;;;;;5004853;28;20203;-45
2024/01/07 00:31:58;;;;;;;7.25;4.47;;;7.80;99.90;;;;;;5021999;28;20614;-47
2024/01/07 00:34:27;;;;;;;4.60;4.10;;;7.80;99.90;;;;;;5021231;28;20199;-46
2024/01/07 00:36:55;;;;;;;4.75;4.00;;;7.80;99.90;;;;;;5016076;28;20560;-46
2024/01/07 00:39:24;;;;;;;6.43;4.60;;;7.80;99.90;;;;;;5019250;28;20718;-46
2024/01/07 00:41:56;;;;;;;5.53;4.43;;;7.80;99.90;;;;;;5018212;28;20240;-46
2024/01/07 00:44:24;;;;;;;6.18;4.70;;;7.80;99.90;;;;;;5011741;28;20198;-47
2024/01/07 00:46:52;;;;;;;5.25;4.10;;;7.80;99.90;;;;;;5007134;28;20294;-45
2024/01/07 00:49:21;;;;;;;5.82;5.20;;;7.80;99.90;;;;;;5020115;28;20197;-48
2024/01/07 00:51:50;;;;;;;4.70;4.13;;;7.80;99.90;;;;;;5020490;28;20589;-47
2024/01/07 00:54:18;;;;;;;4.30;3.88;;;7.80;99.90;;;;;;5017581;28;20614;-46
2024/01/07 00:56:46;;;;;;;5.57;3.92;;;7.80;99.90;;;;;;5021972;28;20284;-45
2024/01/07 00:59:16;;;;;;;6.22;4.72;;;7.80;99.90;;;;;;5000579;28;20257;-47
2024/01/07 01:01:44;;;;;;;6.70;4.35;;;7.80;99.90;;;;;;5009866;28;20215;-45
2024/01/07 01:04:12;;;;;;;5.07;4.57;;;7.80;99.90;;;;;;5018466;28;20936;-46
2024/01/07 01:06:41;;;;;;;6.45;4.75;;;7.80;99.90;;;;;;5021790;28;20721;-46
2024/01/07 01:09:10;;;;;;;5.93;4.40;;;7.80;99.90;;;;;;5020890;28;20221;-47
2024/01/07 01:11:39;;;;;;;4.65;3.60;;;7.80;99.90;;;;;;5018568;28;20213;-46
2024/01/07 01:14:08;;;;;;;5.85;4.43;;;7.70;99.90;;;;;;5013456;28;20301;-47
2024/01/07 01:16:38;;;;;;;5.13;4.15;;;7.70;99.90;;;;;;5002676;28;20289;-47
2024/01/07 01:19:06;;;;;;;6.00;5.20;;;7.70;99.90;;;;;;5009919;28;20320;-45
2024/01/07 01:21:35;;;;;;;11.43;7.47;;;7.70;99.90;;;;;;5008565;28;20302;-45
2024/01/07 01:24:03;;;;;;;5.43;4.25;;;7.70;99.90;;;;;;5025069;28;20232;-46
2024/01/07 01:26:31;;;;;;;6.60;4.55;;;7.70;99.90;;;;;;5019646;28;20306;-46
2024/01/07 01:28:59;;;;;;;7.35;5.88;;;7.70;99.90;;;;;;5016536;28;20245;-47
2024/01/07 01:31:27;;;;;;;5.78;4.88;;;7.70;99.90;;;;;;5018208;28;20885;-47
2024/01/07 01:33:57;;;;;;;6.97;4.65;;;7.70;99.90;;;;;;5019456;28;20227;-47
2024/01/07 01:36:26;;;;;;;7.05;5.18;;;7.70;99.90;;;;;;5018575;28;20686;-45
2024/01/07 01:38:54;;;;;;;6.93;4.20;;;7.70;99.90;;;;;;5021201;28;20714;-46
2024/01/07 01:41:22;;;;;;;7.47;4.88;;;7.70;99.90;;;;;;5019115;28;20951;-45
2024/01/07 01:43:50;;;;;;;6.57;4.80;;;7.70;99.90;;;;;;5008429;28;20216;-47
2024/01/07 01:46:19;;;;;;;6.32;4.60;;;7.70;99.90;;;;;;5018966;28;20221;-47
2024/01/07 01:48:47;;;;;;;7.35;5.30;;;7.70;99.90;;;;;;5019518;28;20238;-46
2024/01/07 01:51:18;;;;;;;5.32;4.25;;;7.70;99.90;;;;;;5008334;28;20448;-47
2024/01/07 01:53:48;;;;;;;6.95;4.85;;;7.70;99.90;;;;;;5017762;28;20271;-48
2024/01/07 01:56:18;;;;;;;7.22;5.10;;;7.70;99.90;;;;;;5005950;28;20717;-46
2024/01/07 01:58:46;;;;;;;6.55;5.00;;;7.70;99.90;;;;;;5018862;28;20556;-46
2024/01/07 02:01:14;;;;;;;7.53;5.45;;;7.70;99.90;;;;;;5013592;28;20268;-47
2024/01/07 02:03:43;;;;;;;5.05;4.03;;;7.70;99.90;;;;;;5022056;28;20692;-46
2024/01/07 02:06:11;;;;;;;8.65;5.50;;;7.70;99.90;;;;;;5024904;28;20205;-46
2024/01/07 02:08:41;;;;;;;7.75;5.10;;;7.70;99.90;;;;;;5022104;28;20225;-49
2024/01/07 02:11:17;;;;;;;6.32;4.60;;;7.70;99.90;;;;;;5027561;28;20707;-46
2024/01/07 02:13:46;;;;;;;7.32;5.15;;;7.70;99.90;;;;;;5009679;28;20474;-43
2024/01/07 02:16:15;;;;;;;6.05;4.80;;;7.70;99.90;;;;;;5022473;28;20196;-47
2024/01/07 02:18:48;;;;;;;9.05;4.78;;;7.70;99.90;;;;;;5024529;28;20210;-47
2024/01/07 02:21:17;;;;;;;5.40;4.72;;;7.70;99.90;;;;;;5027067;28;20450;-47
2024/01/07 02:23:46;;;;;;;7.03;4.50;;;7.70;99.90;;;;;;5021328;28;20227;-45
2024/01/07 02:26:16;;;;;;;6.88;5.07;;;7.70;99.90;;;;;;5025458;28;20195;-48
2024/01/07 02:28:44;;;;;;;7.65;4.85;;;7.70;99.90;;;;;;5020201;28;20539;-48
2024/01/07 02:31:13;;;;;;;6.60;4.88;;;7.70;99.90;;;;;;5017416;28;20233;-47
2024/01/07 02:33:41;;;;;;;5.40;4.40;;;7.70;99.90;;;;;;5022890;28;20226;-47
2024/01/07 02:36:10;;;;;;;6.70;4.50;;;7.70;99.90;;;;;;5023215;28;20201;-46
2024/01/07 02:38:38;;;;;;;6.40;5.03;;;7.70;99.90;;;;;;5015311;28;20276;-47
2024/01/07 02:41:06;;;;;;;6.32;5.25;;;7.60;99.90;;;;;;5021337;28;20710;-48
2024/01/07 02:43:36;;;;;;;7.53;5.15;;;7.70;99.90;;;;;;5020610;28;20577;-47
2024/01/07 02:46:04;;;;;;;7.80;4.93;;;7.60;99.90;;;;;;5008770;28;20194;-47
2024/01/07 02:48:33;;;;;;;6.18;4.63;;;7.60;99.90;;;;;;5022611;28;20226;-46
2024/01/07 02:51:03;;;;;;;5.22;4.20;;;7.60;99.90;;;;;;5024794;28;20596;-50
2024/01/07 02:53:31;;;;;;;7.13;4.70;;;7.60;99.90;;;;;;5024402;28;20222;-45
2024/01/07 02:56:00;;;;;;;6.28;4.45;;;7.60;99.90;;;;;;5010687;28;20208;-46
2024/01/07 02:58:28;;;;;;;7.32;5.07;;;7.60;99.90;;;;;;5021240;28;20875;-45
2024/01/07 03:01:00;;;;;;;8.77;6.05;;;7.70;99.90;;;;;;5009422;28;20221;-49
2024/01/07 03:03:28;;;;;;;7.28;4.82;;;7.60;99.90;;;;;;5020982;28;20704;-45
2024/01/07 03:05:56;;;;;;;5.63;4.85;;;7.60;99.90;;;;;;5025333;28;20321;-47
2024/01/07 03:08:24;;;;;;;7.80;5.43;;;7.60;99.90;;;;;;5016728;28;20219;-46
2024/01/07 03:10:52;;;;;;;6.22;4.57;;;7.60;99.90;;;;;;5019959;28;20221;-46
2024/01/07 03:13:20;;;;;;;7.30;5.07;;;7.60;99.90;;;;;;5003864;28;20221;-46
2024/01/07 03:15:49;;;;;;;6.25;5.15;;;7.60;99.90;;;;;;5018069;28;20563;-46
2024/01/07 03:18:18;;;;;;;9.70;6.75;;;7.60;99.90;;;;;;5022844;28;20236;-47
2024/01/07 03:20:46;;;;;;;8.18;5.80;;;7.60;99.90;;;;;;5018984;28;20313;-47
2024/01/07 03:23:15;;;;;;;7.80;5.75;;;7.60;99.90;;;;;;5022157;28;20224;-47
2024/01/07 03:25:43;;;;;;;8.52;5.35;;;7.60;99.90;;;;;;5010142;28;20212;-47
2024/01/07 03:28:11;;;;;;;6.78;5.20;;;7.60;99.90;;;;;;5022895;28;20232;-48
2024/01/07 03:30:39;;;;;;;7.22;5.30;;;7.60;99.90;;;;;;5012541;28;20219;-47
2024/01/07 03:33:08;;;;;;;6.82;5.50;;;7.60;99.90;;;;;;5027765;28;20324;-46
2024/01/07 03:35:38;;;;;;;7.07;5.47;;;7.60;99.90;;;;;;5023727;28;20667;-44
2024/01/07 03:38:06;;;;;;;7.28;4.90;;;7.60;99.90;;;;;;5022643;28;20308;-44
2024/01/07 03:40:34;;;;;;;8.35;5.15;;;7.60;99.90;;;;;;5019308;28;20604;-45
2024/01/07 03:43:02;;;;;;;7.95;5.50;;;7.60;99.90;;;;;;5024697;28;20223;-44
2024/01/07 03:45:31;;;;;;;8.15;6.22;;;7.60;99.90;;;;;;5018821;28;20205;-44
2024/01/07 03:47:59;;;;;;;6.78;5.60;;;7.60;99.90;;;;;;5027253;28;20315;-44
2024/01/07 03:50:27;;;;;;;9.70;6.00;;;7.60;99.90;;;;;;5022510;28;20295;-45
2024/01/07 03:52:57;;;;;;;7.80;6.10;;;7.60;99.90;;;;;;5024007;28;20267;-44
2024/01/07 03:55:25;;;;;;;6.80;5.18;;;7.60;99.90;;;;;;5021824;28;20591;-45
2024/01/07 03:57:53;;;;;;;8.05;5.60;;;7.60;99.90;;;;;;5019253;28;20218;-45
2024/01/07 04:00:23;;;;;;;7.80;5.82;;;7.60;99.90;;;;;;5016452;28;20217;-45
2024/01/07 04:02:52;;;;;;;8.75;5.38;;;7.50;99.90;;;;;;5021131;28;20748;-46
2024/01/07 04:05:20;;;;;;;7.07;5.10;;;7.60;99.90;;;;;;5024886;28;20200;-46
2024/01/07 04:07:49;;;;;;;9.55;6.50;;;7.50;99.90;;;;;;5023831;28;20261;-46
2024/01/07 04:10:19;;;;;;;7.63;5.65;;;7.50;99.90;;;;;;5023181;28;20216;-47
2024/01/07 04:12:47;;;;;;;8.93;6.40;;;7.50;99.90;;;;;;5023722;28;20233;-46
2024/01/07 04:15:15;;;;;;;6.75;5.00;;;7.50;99.90;;;;;;5001929;28;20221;-47
2024/01/07 04:17:43;;;;;;;6.60;5.40;;;7.50;99.90;;;;;;5024317;28;20225;-44
2024/01/07 04:20:14;;;;;;;5.82;4.57;;;7.50;99.90;;;;;;5023766;28;20230;-47
2024/01/07 04:22:42;;;;;;;7.53;5.72;;;7.50;99.90;;;;;;5023084;28;20223;-47
2024/01/07 04:25:10;;;;;;;9.73;5.70;;;7.50;99.90;;;;;;5021031;28;20253;-47
2024/01/07 04:27:40;;;;;;;8.40;5.70;;;7.50;99.90;;;;;;5021670;28;20233;-46
2024/01/07 04:30:09;;;;;;;7.55;6.10;;;7.50;99.90;;;;;;5019091;28;20231;-47
2024/01/07 04:32:37;;;;;;;8.00;5.38;;;7.50;99.90;;;;;;5021386;28;20271;-48
2024/01/07 04:35:06;;;;;;;8.05;5.53;;;7.50;99.90;;;;;;5017436;28;20586;-47
2024/01/07 04:37:35;;;;;;;6.38;5.20;;;7.50;99.90;;;;;;5017394;28;20277;-47
2024/01/07 04:40:04;;;;;;;6.55;4.75;;;7.50;99.90;;;;;;5023942;28;20431;-46
2024/01/07 04:42:32;;;;;;;6.82;5.25;;;7.50;99.90;;;;;;5014970;28;20251;-48
2024/01/07 04:45:02;;;;;;;7.10;5.63;;;7.50;99.90;;;;;;5019053;28;20220;-45
2024/01/07 04:47:31;;;;;;;8.20;6.03;;;7.50;99.90;;;;;;5023519;28;20711;-45
2024/01/07 04:49:59;;;;;;;9.07;5.95;;;7.50;99.90;;;;;;5024285;28;20272;-46
2024/01/07 04:52:28;;;;;;;6.25;4.85;;;7.50;99.90;;;;;;5015090;28;20218;-46
2024/01/07 04:54:57;;;;;;;7.80;5.43;;;7.50;99.90;;;;;;5022508;28;20575;-48
2024/01/07 04:57:25;;;;;;;5.28;4.57;;;7.50;99.90;;;;;;5024369;28;20247;-45
2024/01/07 04:59:54;;;;;;;6.85;5.30;;;7.50;99.90;;;;;;5013084;28;20684;-44
2024/01/07 05:02:24;;;;;;;7.80;5.35;;;7.50;99.90;;;;;;5021679;28;20298;-47
2024/01/07 05:04:52;;;;;;;6.82;5.20;;;7.50;99.90;;;;;;5018504;28;20196;-45
2024/01/07 05:07:20;;;;;;;8.05;5.38;;;7.50;99.90;;;;;;5022920;28;20287;-47
2024/01/07 05:09:49;;;;;;;5.78;4.80;;;7.50;99.90;;;;;;5024309;28;20259;-45
2024/01/07 05:12:18;;;;;;;6.85;5.18;;;7.50;99.90;;;;;;5021588;28;20660;-48
2024/01/07 05:14:46;;;;;;;5.88;4.70;;;7.50;99.90;;;;;;5017191;28;20228;-45
2024/01/07 05:17:14;;;;;;;6.25;4.93;;;7.50;99.90;;;;;;5020684;28;20598;-47
2024/01/07 05:19:44;;;;;;;7.03;4.88;;;7.50;99.90;;;;;;5022760;28;20679;-46
2024/01/07 05:22:12;;;;;;;7.63;5.72;;;7.50;99.90;;;;;;5018415;28;20225;-48
2024/01/07 05:24:40;;;;;;;6.40;5.50;;;7.50;99.90;;;;;;5022443;28;20199;-46
2024/01/07 05:27:09;;;;;;;7.68;5.40;;;7.40;99.90;;;;;;5021242;28;20657;-46
2024/01/07 05:29:37;;;;;;;6.80;5.05;;;7.50;99.90;;;;;;5015920;28;20270;-47
2024/01/07 05:32:06;;;;;;;7.97;5.63;;;7.50;99.90;;;;;;5023144;28;20651;-47
2024/01/07 05:34:37;;;;;;;6.35;4.90;;;7.50;99.90;;;;;;5021598;28;20211;-47
2024/01/07 05:37:07;;;;;;;6.82;5.93;;;7.40;99.90;;;;;;5022709;28;20221;-45
2024/01/07 05:39:35;;;;;;;6.53;5.22;;;7.40;99.90;;;;;;5020496;28;20244;-47
2024/01/07 05:42:04;;;;;;;6.40;4.60;;;7.40;99.90;;;;;;5027274;28;20648;-47
2024/01/07 05:44:32;;;;;;;7.15;5.32;;;7.50;99.90;;;;;;5017986;28;20280;-47
2024/01/07 05:47:00;;;;;;;7.20;5.10;;;7.40;99.90;;;;;;5027561;28;20200;-46
2024/01/07 05:49:28;;;;;;;7.30;5.40;;;7.40;99.90;;;;;;5022742;28;20211;-46
2024/01/07 05:51:56;;;;;;;7.75;5.13;;;7.50;99.90;;;;;;5024041;28;20218;-47
2024/01/07 05:54:26;;;;;;;8.20;5.60;;;7.40;99.90;;;;;;5025502;28;20322;-47
2024/01/07 05:56:57;;;;;;;6.00;4.93;;;7.40;99.90;;;;;;5023861;28;20198;-47
2024/01/07 05:59:25;;;;;;;7.35;5.40;;;7.40;99.90;;;;;;5005746;28;20190;-46
2024/01/07 06:01:59;;;;;;;7.20;5.45;;;7.40;99.90;;;;;;5026038;28;20269;-46
2024/01/07 06:04:27;;;;;;;6.38;4.55;;;7.40;99.90;;;;;;5014587;28;20211;-43
2024/01/07 06:06:55;;;;;;;7.55;5.30;;;7.40;99.90;;;;;;5011044;28;20666;-49
2024/01/07 06:09:25;;;;;;;6.32;4.97;;;7.40;99.90;;;;;;5023452;28;20202;-44
2024/01/07 06:11:53;;;;;;;5.85;5.07;;;7.40;99.90;;;;;;5018661;28;20681;-46
2024/01/07 06:14:22;;;;;;;7.35;5.05;;;7.40;99.90;;;;;;5022561;28;20267;-48
2024/01/07 06:16:50;;;;;;;5.57;4.60;;;7.40;99.90;;;;;;5023991;28;20194;-48
2024/01/07 06:19:18;;;;;;;7.72;5.88;;;7.40;99.90;;;;;;5027187;28;20560;-48
2024/01/07 06:21:47;;;;;;;5.97;4.93;;;7.40;99.90;;;;;;5025078;28;20674;-47
2024/01/07 06:24:16;;;;;;;7.20;4.72;;;7.40;99.90;;;;;;5027388;28;20185;-46
2024/01/07 06:26:45;;;;;;;5.20;3.97;;;7.40;99.90;;;;;;5025559;28;20280;-45
2024/01/07 06:29:13;;;;;;;7.03;4.95;;;7.40;99.90;;;;;;5019897;28;20198;-47
2024/01/07 06:31:45;;;;;;;7.88;5.35;;;7.40;99.90;;;;;;5026438;28;20230;-46
2024/01/07 06:34:13;;;;;;;6.23;5.27;;;7.40;99.90;;;;;;5018097;28;20225;-46
2024/01/07 06:36:42;;;;;;;7.30;5.70;;;7.40;99.90;;;;;;5025730;28;20490;-47
2024/01/07 06:39:10;;;;;;;6.13;5.13;;;7.40;99.90;;;;;;5026279;28;20217;-46
2024/01/07 06:41:39;;;;;;;5.25;4.72;;;7.40;99.90;;;;;;5021680;28;20220;-47
2024/01/07 06:44:08;;;;;;;5.45;4.82;;;7.40;99.90;;;;;;5015695;28;20242;-46
2024/01/07 06:46:36;;;;;;;6.25;5.00;;;7.40;99.90;;;;;;5022187;28;20198;-47
2024/01/07 06:49:05;;;;;;;7.32;5.07;;;7.40;99.90;;;;;;5020628;28;20238;-48
2024/01/07 06:51:33;;;;;;;6.30;4.88;;;7.40;99.90;;;;;;5023394;28;20250;-46
2024/01/07 06:54:01;;;;;;;6.38;5.05;;;7.40;99.90;;;;;;5019111;28;20593;-45
2024/01/07 06:56:29;;;;;;;9.48;4.72;;;7.40;99.90;;;;;;5021341;28;20218;-45
2024/01/07 06:58:57;;;;;;;6.35;5.40;;;7.40;99.90;;;;;;5023245;28;20226;-45
2024/01/07 07:01:26;;;;;;;6.97;5.85;;;7.40;99.90;;;;;;5023214;28;20215;-47
2024/01/07 07:03:55;;;;;;;6.38;4.57;;;7.30;99.90;;;;;;5017141;28;20256;-45
2024/01/07 07:06:24;;;;;;;7.07;5.35;;;7.40;99.90;;;;;;5023715;28;20644;-45
2024/01/07 07:08:52;;;;;;;7.70;5.85;;;7.40;99.90;;;;;;5001279;28;20225;-46
2024/01/07 07:11:20;;;;;;;7.13;5.45;;;7.40;99.90;;;;;;5024648;28;20698;-47
2024/01/07 07:13:48;;;;;;;6.65;5.30;;;7.40;99.90;;;;;;5022495;28;20581;-45
2024/01/07 07:16:16;;;;;;;6.93;4.65;;;7.30;99.90;;;;;;5025491;28;20213;-45
2024/01/07 07:18:46;;;;;;;6.22;5.20;;;7.30;99.90;;;;;;5021136;28;20653;-47
2024/01/07 07:21:14;;;;;;;5.10;4.38;;;7.30;99.90;;;;;;5025117;28;20656;-48
2024/01/07 07:23:42;;;;;;;5.95;4.90;;;7.30;99.90;;;;;;5022493;28;20298;-46
2024/01/07 07:26:10;;;;;;;5.13;4.03;;;7.30;99.90;;;;;;5024883;28;20271;-47
2024/01/07 07:28:38;;;;;;;7.10;5.60;;;7.30;99.90;;;;;;5024256;28;20279;-46
2024/01/07 07:31:06;;;;;;;7.63;5.75;;;7.30;99.90;;;;;;5022013;28;20221;-46
2024/01/07 07:33:35;;;;;;;5.65;5.00;;;7.30;99.90;;;;;;5022773;28;20227;-45
2024/01/07 07:36:05;;;;;;;6.50;4.55;;;7.30;99.90;;;;;;5023757;28;20214;-46
2024/01/07 07:38:34;;;;;;;6.57;4.97;;;7.30;99.90;;;;;;5020239;28;20227;-45
2024/01/07 07:41:02;;;;;;;6.80;5.75;;;7.30;99.90;;;;;;5025960;28;20213;-46
2024/01/07 07:43:30;;;;;;;8.65;5.40;;;7.30;99.90;;;;;;5021850;28;20316;-50
2024/01/07 07:45:59;;;;;;;5.72;4.68;;;7.30;99.90;;;;;;5013101;28;20717;-46
2024/01/07 07:48:28;;;;;;;6.28;5.10;;;7.30;99.90;;;;;;5023625;28;20229;-44
2024/01/07 07:50:56;;;;;;;8.75;6.38;;;7.30;99.90;;;;;;5024866;28;20215;-44
2024/01/07 07:53:25;;;;;;;5.82;4.68;;;7.20;99.90;;;;;;5016124;28;20222;-44
2024/01/07 07:55:53;;;;;;;5.75;4.80;;;7.20;99.90;;;;;;5019530;28;20231;-45
2024/01/07 07:58:25;;;;;;;6.95;4.72;;;7.20;99.90;;;;;;5013831;28;20232;-44
2024/01/07 08:00:53;;;;;;;6.68;5.05;;;7.20;99.90;;;;;;5019513;28;20209;-44
2024/01/07 08:03:21;;;;;;;6.68;5.18;;;7.20;99.90;;;;;;5023276;28;20922;-44
2024/01/07 08:05:49;;;;;;;6.03;4.80;;;7.20;99.90;;;;;;5022016;28;20601;-44
2024/01/07 08:08:18;;;;;;;7.15;5.22;;;7.20;99.90;;;;;;5023842;28;20296;-44
2024/01/07 08:10:47;;;;;;;6.82;5.35;;;7.20;99.90;;;;;;5026270;28;20246;-45
2024/01/07 08:13:15;;;;;;;8.77;6.15;;;7.30;99.90;;;;;;5018714;28;20291;-45
2024/01/07 08:15:44;;;;;;;9.18;6.50;;;7.30;99.90;;;;;;5017867;28;20191;-44
2024/01/07 08:18:12;;;;;;;8.50;6.85;;;7.20;99.90;;;;;;5026248;28;20222;-44
2024/01/07 08:20:40;;;;;;;6.15;4.38;;;7.20;99.90;;;;;;5025084;28;20302;-49
2024/01/07 08:23:08;;;;;;;7.53;5.60;;;7.20;99.90;;;;;;5026344;28;20691;-44
2024/01/07 08:25:36;;;;;;;7.13;4.70;;;7.20;99.90;;;;;;5018761;28;20204;-44
2024/01/07 08:28:06;;;;;;;6.82;5.07;;;7.20;99.90;;;;;;5007410;28;20274;-44
2024/01/07 08:30:34;;;;;;;6.82;4.80;;;7.20;99.90;;;;;;5021826;28;20509;-44
2024/01/07 08:33:02;;;;;;;6.65;4.60;;;7.20;99.90;;;;;;5020762;28;20238;-43
2024/01/07 08:35:30;;;;;;;7.93;5.55;;;7.20;99.90;;;;;;5018718;28;20210;-44
2024/01/07 08:37:59;;;;;;;5.07;4.25;;;7.20;99.90;;;;;;5021522;28;20217;-44
2024/01/07 08:40:27;;;;;;;8.20;4.50;;;7.20;99.90;;;;;;5026732;28;20228;-44
2024/01/07 08:42:55;;;;;;;4.78;4.28;;;7.20;99.90;;;;;;5025691;28;20216;-43
2024/01/07 08:45:24;;;;;;;5.32;4.50;;;7.20;99.90;;;;;;5017836;28;20648;-45
2024/01/07 08:47:53;;;;;;;6.45;4.93;;;7.20;99.90;;;;;;5019019;28;20258;-45
2024/01/07 08:50:21;;;;;;;6.65;5.90;;;7.20;99.90;;;;;;5020443;28;20215;-42
2024/01/07 08:52:49;;;;;;;6.80;5.25;;;7.20;99.90;;;;;;5021065;28;20235;-44
2024/01/07 08:55:17;;;;;;;7.20;5.43;;;7.20;99.90;;;;;;5023384;28;20221;-43
2024/01/07 08:57:48;;;;;;;7.50;4.88;;;7.20;99.90;;;;;;5009330;28;20690;-44
2024/01/07 09:00:17;;;;;;;6.07;5.45;;;7.20;99.90;;;;;;5019518;28;20249;-44
2024/01/07 09:02:47;;;;;;;5.72;4.50;;;7.20;99.90;;;;;;5019650;28;21375;-43
2024/01/07 09:05:15;;;;;;;6.80;4.82;;;7.20;99.90;;;;;;5018812;28;20194;-44
2024/01/07 09:07:43;;;;;;;7.10;6.00;;;7.20;99.90;;;;;;5006183;28;20225;-44
2024/01/07 09:10:13;;;;;;;7.85;6.35;;;7.20;99.90;;;;;;5023822;28;20295;-47
2024/01/07 09:12:41;;;;;;;6.00;4.90;;;7.20;99.90;;;;;;5024772;28;20304;-42
2024/01/07 09:15:10;;;;;;;6.28;5.10;;;7.20;99.90;;;;;;5018410;28;20581;-44
2024/01/07 09:17:39;;;;;;;5.07;4.40;;;7.20;99.90;;;;;;5023300;28;20238;-44
2024/01/07 09:20:10;;;;;;;6.15;4.85;;;7.10;99.90;;;;;;5024780;28;20231;-45
2024/01/07 09:22:40;;;;;;;7.63;5.43;;;7.10;99.90;;;;;;5017670;28;20220;-43
2024/01/07 09:25:09;;;;;;;5.85;4.20;;;7.20;99.90;;;;;;5020365;28;20191;-42
2024/01/07 09:27:37;;;;;;;6.15;4.93;;;7.10;99.90;;;;;;5022709;28;20695;-44
2024/01/07 09:30:06;;;;;;;7.05;5.35;;;7.10;99.90;;;;;;5014813;28;20696;-44
2024/01/07 09:32:34;;;;;;;6.78;5.13;;;7.10;99.90;;;;;;5022030;28;20578;-45
2024/01/07 09:35:06;;;;;;;6.25;4.47;;;7.10;99.90;;;;;;5020420;28;20213;-44
2024/01/07 09:37:36;;;;;;;4.97;4.45;;;7.10;99.90;;;;;;5019214;28;20228;-45
2024/01/07 09:40:06;;;;;;;6.07;4.57;;;7.10;99.90;;;;;;5018971;28;20590;-44
2024/01/07 09:42:34;;;;;;;6.82;5.18;;;7.20;99.90;;;;;;5024030;28;20228;-43
2024/01/07 09:45:04;;;;;;;10.27;6.72;;;7.10;99.90;;;;;;5017480;28;20189;-43
2024/01/07 09:47:33;;;;;;;8.15;6.57;;;7.10;99.90;;;;;;5022629;28;20225;-43
2024/01/07 09:50:01;;;;;;;5.60;4.60;;;7.10;99.90;;;;;;5020273;28;20217;-43
2024/01/07 09:52:30;;;;;;;6.50;5.30;;;7.10;99.90;;;;;;5023212;28;20300;-44
2024/01/07 09:55:03;;;;;;;6.45;4.85;;;7.10;99.90;;;;;;5020295;28;20594;-44
2024/01/07 09:57:32;;;;;;;5.38;4.53;;;7.10;99.90;;;;;;5021490;28;20229;-44
2024/01/07 10:00:02;;;;;;;6.30;4.50;;;7.10;99.90;;;;;;5016043;28;20238;-44
2024/01/07 10:02:41;;;;;;;6.63;4.70;;;7.10;99.90;;;;;;5023054;28;20228;-44
2024/01/07 10:05:09;;;;;;;7.47;5.32;;;7.10;99.90;;;;;;5022363;28;20667;-44
2024/01/07 10:07:37;;;;;;;4.85;4.35;;;7.10;99.90;;;;;;5022542;28;20227;-43
2024/01/07 10:10:14;;;;;;;6.07;4.80;;;7.10;99.90;;;;;;5024522;28;20214;-43
2024/01/07 10:12:45;;;;;;;6.75;4.57;;;7.10;99.90;;;;;;5023093;28;20737;-44
2024/01/07 10:15:14;;;;;;;8.13;5.28;;;7.10;99.90;;;;;;5016083;28;20194;-45
2024/01/07 10:17:43;;;;;;;5.03;3.92;;;7.10;99.90;;;;;;5022824;28;20746;-44
2024/01/07 10:20:12;;;;;;;5.50;4.47;;;7.10;99.90;;;;;;5024547;28;20213;-44
2024/01/07 10:22:41;;;;;;;5.95;5.18;;;7.10;99.90;;;;;;5024196;28;20309;-43
2024/01/07 10:25:09;;;;;;;5.80;4.20;;;7.10;99.90;;;;;;5007513;28;20186;-42
2024/01/07 10:27:39;;;;;;;8.43;4.78;;;7.10;99.90;;;;;;5026281;28;20312;-48
2024/01/07 10:30:08;;;;;;;6.38;4.63;;;7.10;99.90;;;;;;5020894;28;20220;-45
2024/01/07 10:32:37;;;;;;;7.95;4.70;;;7.10;99.90;;;;;;5026726;28;20218;-45
2024/01/07 10:35:14;;;;;;;5.75;4.32;;;7.10;99.90;;;;;;5026671;28;20204;-46
2024/01/07 10:37:45;;;;;;;7.70;5.35;;;7.10;99.90;;;;;;5028752;28;20298;-46
2024/01/07 10:40:15;;;;;;;6.82;5.43;;;7.10;99.90;;;;;;5023316;28;20247;-49
2024/01/07 10:42:46;;;;;;;6.32;5.03;;;7.10;99.90;;;;;;5022338;28;20231;-45
2024/01/07 10:45:14;;;;;;;6.97;4.57;;;7.10;99.90;;;;;;5029412;28;20197;-48
2024/01/07 10:47:49;;;;;;;6.82;4.82;;;7.10;99.90;;;;;;5025252;28;20599;-46
2024/01/07 10:50:18;;;;;;;6.28;4.50;;;7.10;99.90;;;;;;5026896;28;20229;-46
2024/01/07 10:52:51;;;;;;;6.80;5.75;;;7.10;99.90;;;;;;5027499;28;20221;-48
2024/01/07 10:55:20;;;;;;;4.93;4.43;;;7.10;99.90;;;;;;5029576;28;20191;-47
2024/01/07 10:57:50;;;;;;;7.68;5.43;;;7.10;99.90;;;;;;5027509;28;20228;-45
2024/01/07 11:00:22;;;;;;;6.65;4.78;;;7.10;99.90;;;;;;5018290;28;20224;-47
2024/01/07 11:03:03;;;;;;;7.40;5.50;;;7.10;99.90;;;;;;5022454;28;20768;-46
2024/01/07 11:05:42;;;;;;;6.50;5.03;;;7.10;99.90;;;;;;5025505;28;20202;-45
2024/01/07 11:08:19;;;;;;;6.10;4.47;;;7.10;99.90;;;;;;5010484;28;20700;-47
2024/01/07 11:10:54;;;;;;;6.90;5.20;;;7.00;99.90;;;;;;5028096;28;21015;-44
2024/01/07 11:13:44;;;;;;;5.10;4.18;;;7.10;99.90;;;;;;5028100;28;20307;-45
2024/01/07 11:16:13;;;;;;;6.45;4.45;;;7.10;99.90;;;;;;5019514;28;20198;-49
2024/01/07 11:18:49;;;;;;;6.13;4.45;;;7.10;99.90;;;;;;5028413;28;20232;-45
2024/01/07 11:21:24;;;;;;;7.43;5.10;;;7.00;99.90;;;;;;5011269;28;20610;-47
2024/01/07 11:23:53;;;;;;;6.90;5.22;;;7.00;99.90;;;;;;5018607;28;20228;-46
2024/01/07 11:26:21;;;;;;;5.70;4.28;;;7.00;99.90;;;;;;5009313;28;20195;-46
2024/01/07 11:28:53;;;;;;;4.28;3.78;;;7.00;99.90;;;;;;5023752;28;20266;-46
2024/01/07 11:31:22;;;;;;;5.75;5.15;;;7.00;99.90;;;;;;5020080;28;20226;-47
2024/01/07 11:33:51;;;;;;;4.80;4.20;;;7.00;99.90;;;;;;5028337;28;20749;-44
2024/01/07 11:36:20;;;;;;;5.78;5.18;;;7.00;99.90;;;;;;5008948;28;20250;-44
2024/01/07 11:38:50;;;;;;;4.55;3.78;;;7.00;99.90;;;;;;5023915;28;20265;-46
2024/01/07 11:41:23;;;;;;;6.03;4.60;;;7.00;99.90;;;;;;5026463;28;20685;-47
2024/01/07 11:44:00;;;;;;;4.80;4.07;;;7.00;99.90;;;;;;5017787;28;20227;-48
2024/01/07 11:46:35;;;;;;;6.55;4.55;;;7.00;99.90;;;;;;5027629;28;20199;-46
2024/01/07 11:49:03;;;;;;;7.20;5.43;;;7.00;99.90;;;;;;5015898;28;20318;-47
2024/01/07 11:51:38;;;;;;;6.30;4.88;;;7.00;99.90;;;;;;5023919;28;20257;-47
2024/01/07 11:54:06;;;;;;;5.70;4.63;;;7.00;99.90;;;;;;5017850;28;20236;-45
2024/01/07 11:56:38;;;;;;;4.30;3.42;;;7.00;99.90;;;;;;5021602;28;20372;-44
2024/01/07 11:59:08;;;;;;;5.28;4.78;;;7.00;99.90;;;;;;5022773;28;20220;-45
2024/01/07 12:01:36;;;;;;;5.78;4.90;;;7.00;99.90;;;;;;5015543;28;20234;-46
2024/01/07 12:04:05;;;;;;;4.80;3.90;;;7.00;99.90;;;;;;5026659;28;20254;-47
2024/01/07 12:06:34;;;;;;;4.90;4.43;;;7.00;99.90;;;;;;5021621;28;20229;-45
2024/01/07 12:09:06;;;;;;;4.88;4.30;;;7.00;99.90;;;;;;5021163;28;20241;-48
2024/01/07 12:11:34;;;;;;;6.35;5.53;;;7.00;99.90;;;;;;5025412;28;20230;-45
2024/01/07 12:14:03;;;;;;;5.18;4.30;;;7.00;99.90;;;;;;5021774;28;20315;-46
2024/01/07 12:16:33;;;;;;;4.13;3.70;;;7.00;99.90;;;;;;5023862;28;20222;-48
2024/01/07 12:19:01;;;;;;;4.43;3.78;;;7.00;99.90;;;;;;5028067;28;20576;-49
2024/01/07 12:21:30;;;;;;;8.70;5.05;;;6.90;99.90;;;;;;5023828;28;20215;-47
2024/01/07 12:23:59;;;;;;;5.32;4.20;;;6.90;99.90;;;;;;5024573;28;20287;-46
2024/01/07 12:26:28;;;;;;;5.18;4.32;;;6.90;99.90;;;;;;5027401;28;20201;-46
2024/01/07 12:28:59;;;;;;;5.95;5.30;;;6.90;99.90;;;;;;5017354;28;20409;-47
2024/01/07 12:31:28;;;;;;;5.25;3.88;;;6.90;99.90;;;;;;5023676;28;20416;-47
2024/01/07 12:34:02;;;;;;;6.95;4.93;;;6.90;99.90;;;;;;5019744;28;20745;-46
2024/01/07 12:36:32;;;;;;;7.13;5.10;;;6.90;99.90;;;;;;5021663;28;20194;-46
2024/01/07 12:39:00;;;;;;;4.88;4.40;;;6.90;99.90;;;;;;5023171;28;20691;-46
2024/01/07 12:41:29;;;;;;;8.52;5.43;;;6.90;99.90;;;;;;5026245;28;20218;-45
2024/01/07 12:43:57;;;;;;;5.50;4.53;;;6.90;99.90;;;;;;5023364;28;20223;-47
2024/01/07 12:46:25;;;;;;;5.85;4.60;;;6.80;99.90;;;;;;5023652;28;20192;-45
2024/01/07 12:48:54;;;;;;;4.40;4.00;;;6.90;99.90;;;;;;5019931;28;20215;-45
2024/01/07 12:51:23;;;;;;;5.20;4.50;;;6.80;99.90;;;;;;5027326;28;20479;-46
2024/01/07 12:53:56;;;;;;;5.88;5.03;;;6.90;99.90;;;;;;5015631;28;20690;-48
2024/01/07 12:56:24;;;;;;;5.25;4.75;;;6.80;99.90;;;;;;5017278;28;20194;-46
2024/01/07 12:58:52;;;;;;;5.60;4.60;;;6.80;99.90;;;;;;5015852;28;20753;-47
2024/01/07 13:01:21;;;;;;;6.38;4.70;;;6.90;99.90;;;;;;5016213;28;20218;-45
2024/01/07 13:03:49;;;;;;;6.82;4.68;;;6.80;99.90;;;;;;5027762;28;20225;-45
2024/01/07 13:06:18;;;;;;;6.18;4.43;;;6.80;99.90;;;;;;5023633;28;20240;-46
2024/01/07 13:08:47;;;;;;;5.30;3.95;;;6.80;99.90;;;;;;5023691;28;20225;-45